AVA9780 SKBO-SKSP
Flight info
| Callsign | AVA9780 |
|---|---|
| Flight time | 1h 39m |
| Altitude | 36000 |
| Route | TOBKI4R VASIL UL423 PULOX DCT ARORO DCT PML UN653 SEKMA DCT TOSAV TOSAV2A |
| Aircraft | A320/M-SDE3FGHIRWY/LB1 |
Departure
| Time | 2026-04-26 22:53 |
|---|---|
| Airport | El Dorado International Airport (SKBO) |
Arrival
| Time | 2026-04-27 00:32 |
|---|---|
| Airport | Gustavo Rojas Pinilla International Airport (SKSP) |
| Time | Latitude | Longitude | Altitude | Speed | Heading |
|---|---|---|---|---|---|
| 2026-04-26 22:23 | 4.69799 | -74.14554 | 8366 ft | 0 kts | 37° |
| 2026-04-26 22:40 | 4.69783 | -74.14566 | 8366 ft | 4 kts | 37° |
| 2026-04-26 22:40 | 4.69765 | -74.14578 | 8366 ft | 4 kts | 2° |
| 2026-04-26 22:40 | 4.69743 | -74.14569 | 8366 ft | 4 kts | 312° |
| 2026-04-26 22:40 | 4.69736 | -74.14561 | 8366 ft | 4 kts | 307° |
| 2026-04-26 22:41 | 4.69753 | -74.14583 | 8366 ft | 4 kts | 307° |
| 2026-04-26 22:41 | 4.69769 | -74.14605 | 8366 ft | 4 kts | 307° |
| 2026-04-26 22:41 | 4.69783 | -74.14623 | 8366 ft | 1 kts | 307° |
| 2026-04-26 22:44 | 4.69792 | -74.14635 | 8366 ft | 4 kts | 307° |
| 2026-04-26 22:45 | 4.69806 | -74.14653 | 8374 ft | 2 kts | 308° |
| 2026-04-26 22:45 | 4.69810 | -74.14658 | 8370 ft | 0 kts | 307° |
| 2026-04-26 22:45 | 4.69813 | -74.14662 | 8373 ft | 2 kts | 307° |
| 2026-04-26 22:45 | 4.69833 | -74.14689 | 8366 ft | 7 kts | 307° |
| 2026-04-26 22:46 | 4.69872 | -74.14744 | 8366 ft | 12 kts | 305° |
| 2026-04-26 22:46 | 4.69919 | -74.14807 | 8366 ft | 12 kts | 308° |
| 2026-04-26 22:46 | 4.69932 | -74.14872 | 8366 ft | 10 kts | 220° |
| 2026-04-26 22:46 | 4.69866 | -74.14923 | 8366 ft | 14 kts | 219° |
| 2026-04-26 22:47 | 4.69878 | -74.15006 | 8366 ft | 15 kts | 306° |
| 2026-04-26 22:47 | 4.69944 | -74.15095 | 8366 ft | 17 kts | 308° |
| 2026-04-26 22:47 | 4.70019 | -74.15195 | 8366 ft | 19 kts | 308° |
| 2026-04-26 22:47 | 4.70103 | -74.15304 | 8366 ft | 21 kts | 308° |
| 2026-04-26 22:48 | 4.70195 | -74.15426 | 8365 ft | 23 kts | 306° |
| 2026-04-26 22:48 | 4.70297 | -74.15560 | 8366 ft | 19 kts | 307° |
| 2026-04-26 22:48 | 4.70382 | -74.15672 | 8365 ft | 20 kts | 307° |
| 2026-04-26 22:48 | 4.70470 | -74.15787 | 8365 ft | 22 kts | 307° |
| 2026-04-26 22:49 | 4.70558 | -74.15905 | 8366 ft | 22 kts | 307° |
| 2026-04-26 22:49 | 4.70642 | -74.16016 | 8366 ft | 21 kts | 307° |
| 2026-04-26 22:49 | 4.70722 | -74.16122 | 8366 ft | 18 kts | 307° |
| 2026-04-26 22:49 | 4.70804 | -74.16229 | 8366 ft | 21 kts | 307° |
| 2026-04-26 22:50 | 4.70897 | -74.16354 | 8366 ft | 24 kts | 307° |
| 2026-04-26 22:50 | 4.70983 | -74.16466 | 8366 ft | 21 kts | 307° |
| 2026-04-26 22:50 | 4.71066 | -74.16577 | 8366 ft | 17 kts | 307° |
| 2026-04-26 22:50 | 4.71141 | -74.16677 | 8366 ft | 17 kts | 307° |
| 2026-04-26 22:51 | 4.71199 | -74.16755 | 8366 ft | 11 kts | 303° |
| 2026-04-26 22:51 | 4.71165 | -74.16822 | 8365 ft | 14 kts | 217° |
| 2026-04-26 22:51 | 4.71073 | -74.16884 | 8363 ft | 17 kts | 194° |
| 2026-04-26 22:51 | 4.70988 | -74.16834 | 8363 ft | 16 kts | 127° |
| 2026-04-26 22:52 | 4.70891 | -74.16706 | 8363 ft | 43 kts | 127° |
| 2026-04-26 22:52 | 4.70574 | -74.16283 | 8366 ft | 106 kts | 127° |
| 2026-04-26 22:52 | 4.70015 | -74.15544 | 8364 ft | 157 kts | 127° |
| 2026-04-26 22:52 | 4.69292 | -74.14588 | 8713 ft | 174 kts | 127° |
| 2026-04-26 22:53 | 4.68521 | -74.13671 | 9504 ft | 170 kts | 139° |
| 2026-04-26 22:53 | 4.67511 | -74.13162 | 9947 ft | 171 kts | 178° |
| 2026-04-26 22:53 | 4.66321 | -74.13484 | 10433 ft | 186 kts | 222° |
| 2026-04-26 22:53 | 4.65578 | -74.14527 | 10969 ft | 184 kts | 240° |
| 2026-04-26 22:54 | 4.64907 | -74.15642 | 11287 ft | 193 kts | 238° |
| 2026-04-26 22:54 | 4.64149 | -74.16832 | 11419 ft | 212 kts | 237° |
| 2026-04-26 22:54 | 4.63303 | -74.18130 | 11537 ft | 232 kts | 237° |
| 2026-04-26 22:54 | 4.62392 | -74.19510 | 11730 ft | 247 kts | 237° |
| 2026-04-26 22:55 | 4.61547 | -74.21033 | 12114 ft | 253 kts | 253° |
| 2026-04-26 22:55 | 4.61150 | -74.22811 | 12362 ft | 272 kts | 259° |
| 2026-04-26 22:55 | 4.60773 | -74.24761 | 12503 ft | 296 kts | 259° |
| 2026-04-26 22:55 | 4.60379 | -74.26861 | 12750 ft | 312 kts | 262° |
| 2026-04-26 22:56 | 4.60127 | -74.29027 | 13435 ft | 313 kts | 265° |
| 2026-04-26 22:56 | 4.59979 | -74.31184 | 14116 ft | 314 kts | 267° |
| 2026-04-26 22:56 | 4.59877 | -74.33383 | 14684 ft | 317 kts | 268° |
| 2026-04-26 22:56 | 4.59789 | -74.35598 | 15258 ft | 319 kts | 268° |
| 2026-04-26 22:57 | 4.59696 | -74.37837 | 15822 ft | 321 kts | 268° |
| 2026-04-26 22:57 | 4.59724 | -74.40087 | 16358 ft | 324 kts | 282° |
| 2026-04-26 22:57 | 4.60590 | -74.42128 | 16868 ft | 326 kts | 302° |
| 2026-04-26 22:57 | 4.61906 | -74.44021 | 17425 ft | 328 kts | 307° |
| 2026-04-26 22:58 | 4.63327 | -74.45796 | 17951 ft | 331 kts | 309° |
| 2026-04-26 22:58 | 4.64820 | -74.47569 | 18481 ft | 334 kts | 310° |
| 2026-04-26 22:58 | 4.66353 | -74.49391 | 18638 ft | 348 kts | 309° |
| 2026-04-26 22:58 | 4.67859 | -74.51317 | 18742 ft | 362 kts | 306° |
| 2026-04-26 22:59 | 4.69371 | -74.53407 | 18870 ft | 376 kts | 305° |
| 2026-04-26 22:59 | 4.70886 | -74.55584 | 19194 ft | 382 kts | 304° |
| 2026-04-26 22:59 | 4.72403 | -74.57793 | 19606 ft | 385 kts | 304° |
| 2026-04-26 22:59 | 4.73937 | -74.60012 | 20048 ft | 388 kts | 305° |
| 2026-04-26 23:00 | 4.75472 | -74.62207 | 20472 ft | 391 kts | 305° |
| 2026-04-26 23:00 | 4.77049 | -74.64440 | 20910 ft | 393 kts | 306° |
| 2026-04-26 23:00 | 4.78639 | -74.66680 | 21306 ft | 396 kts | 306° |
| 2026-04-26 23:00 | 4.80250 | -74.68942 | 21725 ft | 398 kts | 306° |
| 2026-04-26 23:01 | 4.81864 | -74.71209 | 22128 ft | 401 kts | 306° |
| 2026-04-26 23:01 | 4.83489 | -74.73495 | 22537 ft | 404 kts | 306° |
| 2026-04-26 23:01 | 4.85119 | -74.75795 | 22948 ft | 406 kts | 306° |
| 2026-04-26 23:01 | 4.86762 | -74.78114 | 23329 ft | 409 kts | 306° |
| 2026-04-26 23:02 | 4.88417 | -74.80447 | 23681 ft | 411 kts | 306° |
| 2026-04-26 23:02 | 4.90086 | -74.82801 | 23940 ft | 414 kts | 306° |
| 2026-04-26 23:02 | 4.91738 | -74.85134 | 24006 ft | 414 kts | 306° |
| 2026-04-26 23:02 | 4.93413 | -74.87499 | 24009 ft | 414 kts | 306° |
| 2026-04-26 23:03 | 4.95083 | -74.89854 | 24002 ft | 414 kts | 306° |
| 2026-04-26 23:03 | 4.96764 | -74.92219 | 23988 ft | 414 kts | 306° |
| 2026-04-26 23:03 | 4.98418 | -74.94551 | 24128 ft | 417 kts | 306° |
| 2026-04-26 23:03 | 5.00099 | -74.96925 | 24467 ft | 419 kts | 306° |
| 2026-04-26 23:04 | 5.01794 | -74.99322 | 24787 ft | 421 kts | 306° |
| 2026-04-26 23:04 | 5.03495 | -75.01724 | 25104 ft | 423 kts | 306° |
| 2026-04-26 23:04 | 5.05212 | -75.04144 | 25424 ft | 426 kts | 306° |
| 2026-04-26 23:04 | 5.06932 | -75.06570 | 25738 ft | 428 kts | 306° |
| 2026-04-26 23:05 | 5.08644 | -75.08988 | 26046 ft | 431 kts | 306° |
| 2026-04-26 23:05 | 5.10388 | -75.11455 | 26357 ft | 433 kts | 306° |
| 2026-04-26 23:05 | 5.12138 | -75.13931 | 26671 ft | 436 kts | 306° |
| 2026-04-26 23:05 | 5.13906 | -75.16425 | 26975 ft | 438 kts | 306° |
| 2026-04-26 23:06 | 5.15689 | -75.18873 | 27348 ft | 440 kts | 310° |
| 2026-04-26 23:06 | 5.17718 | -75.21192 | 27624 ft | 442 kts | 312° |
| 2026-04-26 23:06 | 5.19792 | -75.23478 | 27915 ft | 444 kts | 316° |
| 2026-04-26 23:06 | 5.22065 | -75.25602 | 28172 ft | 447 kts | 318° |
| 2026-04-26 23:07 | 5.24392 | -75.27683 | 28437 ft | 449 kts | 320° |
| 2026-04-26 23:07 | 5.25967 | -75.29042 | 28609 ft | 451 kts | 320° |
| 2026-04-26 23:07 | 5.29198 | -75.31752 | 28958 ft | 454 kts | 321° |
| 2026-04-26 23:07 | 5.31646 | -75.33777 | 29220 ft | 456 kts | 321° |
| 2026-04-26 23:08 | 5.34069 | -75.35783 | 29473 ft | 458 kts | 321° |
| 2026-04-26 23:08 | 5.36534 | -75.37835 | 29726 ft | 460 kts | 321° |
| 2026-04-26 23:08 | 5.39006 | -75.39905 | 29975 ft | 462 kts | 321° |
| 2026-04-26 23:08 | 5.41483 | -75.41994 | 30182 ft | 464 kts | 320° |
| 2026-04-26 23:09 | 5.43933 | -75.44070 | 30381 ft | 467 kts | 320° |
| 2026-04-26 23:09 | 5.46418 | -75.46177 | 30581 ft | 469 kts | 320° |
| 2026-04-26 23:09 | 5.48916 | -75.48296 | 30781 ft | 470 kts | 320° |
| 2026-04-26 23:09 | 5.51440 | -75.50435 | 30980 ft | 472 kts | 320° |
| 2026-04-26 23:10 | 5.53928 | -75.52541 | 31183 ft | 474 kts | 320° |
| 2026-04-26 23:10 | 5.56456 | -75.54678 | 31457 ft | 473 kts | 320° |
| 2026-04-26 23:10 | 5.58128 | -75.56091 | 31665 ft | 473 kts | 320° |
| 2026-04-26 23:10 | 5.60648 | -75.58218 | 31945 ft | 473 kts | 320° |
| 2026-04-26 23:11 | 5.63171 | -75.60350 | 32241 ft | 473 kts | 320° |
| 2026-04-26 23:11 | 5.66511 | -75.63166 | 32600 ft | 473 kts | 320° |
| 2026-04-26 23:11 | 5.69027 | -75.65290 | 32882 ft | 473 kts | 320° |
| 2026-04-26 23:11 | 5.70700 | -75.66701 | 33069 ft | 473 kts | 320° |
| 2026-04-26 23:12 | 5.73235 | -75.68839 | 33361 ft | 473 kts | 320° |
| 2026-04-26 23:12 | 5.75748 | -75.70968 | 33657 ft | 473 kts | 320° |
| 2026-04-26 23:12 | 5.78270 | -75.73102 | 33943 ft | 473 kts | 320° |
| 2026-04-26 23:12 | 5.81604 | -75.75926 | 34267 ft | 473 kts | 320° |
| 2026-04-26 23:13 | 5.83268 | -75.77338 | 34438 ft | 472 kts | 320° |
| 2026-04-26 23:13 | 5.85780 | -75.79465 | 34706 ft | 471 kts | 320° |
| 2026-04-26 23:13 | 5.88293 | -75.81595 | 34973 ft | 470 kts | 320° |
| 2026-04-26 23:13 | 5.90789 | -75.83713 | 35228 ft | 469 kts | 320° |
| 2026-04-26 23:14 | 5.93293 | -75.85832 | 35456 ft | 469 kts | 320° |
| 2026-04-26 23:14 | 5.95768 | -75.87924 | 35673 ft | 469 kts | 320° |
| 2026-04-26 23:14 | 5.98262 | -75.90030 | 35901 ft | 468 kts | 320° |
| 2026-04-26 23:15 | 6.03234 | -75.94237 | 36019 ft | 464 kts | 320° |
| 2026-04-26 23:15 | 6.08171 | -75.98424 | 36023 ft | 462 kts | 320° |
| 2026-04-26 23:16 | 6.13061 | -76.02572 | 36026 ft | 462 kts | 320° |
| 2026-04-26 23:16 | 6.17977 | -76.06745 | 36034 ft | 462 kts | 320° |
| 2026-04-26 23:17 | 6.22911 | -76.10929 | 36031 ft | 462 kts | 320° |
| 2026-04-26 23:17 | 6.27803 | -76.15083 | 36032 ft | 462 kts | 320° |
| 2026-04-26 23:18 | 6.32717 | -76.19251 | 36032 ft | 462 kts | 320° |
| 2026-04-26 23:18 | 6.37627 | -76.23415 | 36023 ft | 462 kts | 319° |
| 2026-04-26 23:19 | 6.42540 | -76.27582 | 36019 ft | 462 kts | 319° |
| 2026-04-26 23:19 | 6.47437 | -76.31736 | 36009 ft | 463 kts | 319° |
| 2026-04-26 23:20 | 6.52361 | -76.35918 | 36003 ft | 463 kts | 319° |
| 2026-04-26 23:20 | 6.57285 | -76.40098 | 35998 ft | 463 kts | 319° |
| 2026-04-26 23:21 | 6.62214 | -76.44282 | 35984 ft | 463 kts | 319° |
| 2026-04-26 23:21 | 6.67113 | -76.48442 | 35975 ft | 462 kts | 319° |
| 2026-04-26 23:22 | 6.72046 | -76.52643 | 35965 ft | 463 kts | 319° |
| 2026-04-26 23:22 | 6.76961 | -76.56821 | 35959 ft | 462 kts | 319° |
| 2026-04-26 23:23 | 6.81844 | -76.60972 | 35949 ft | 462 kts | 319° |
| 2026-04-26 23:23 | 6.86769 | -76.65158 | 35940 ft | 462 kts | 319° |
| 2026-04-26 23:24 | 6.91646 | -76.69307 | 35929 ft | 461 kts | 319° |
| 2026-04-26 23:24 | 6.96538 | -76.73487 | 35921 ft | 461 kts | 319° |
| 2026-04-26 23:25 | 7.01447 | -76.77673 | 35914 ft | 461 kts | 319° |
| 2026-04-26 23:25 | 7.06358 | -76.81851 | 35905 ft | 461 kts | 319° |
| 2026-04-26 23:26 | 7.11261 | -76.86028 | 35899 ft | 461 kts | 319° |
| 2026-04-26 23:26 | 7.16143 | -76.90188 | 35901 ft | 461 kts | 319° |
| 2026-04-26 23:27 | 7.21045 | -76.94370 | 35897 ft | 461 kts | 319° |
| 2026-04-26 23:27 | 7.25923 | -76.98532 | 35891 ft | 461 kts | 319° |
| 2026-04-26 23:28 | 7.30831 | -77.02717 | 35890 ft | 461 kts | 319° |
| 2026-04-26 23:28 | 7.35703 | -77.06880 | 35888 ft | 461 kts | 319° |
| 2026-04-26 23:29 | 7.40605 | -77.11063 | 35876 ft | 461 kts | 319° |
| 2026-04-26 23:29 | 7.45477 | -77.15215 | 35884 ft | 461 kts | 318° |
| 2026-04-26 23:30 | 7.50374 | -77.19397 | 35881 ft | 460 kts | 318° |
| 2026-04-26 23:30 | 7.55271 | -77.23587 | 35885 ft | 460 kts | 318° |
| 2026-04-26 23:31 | 7.60134 | -77.27737 | 35887 ft | 460 kts | 318° |
| 2026-04-26 23:31 | 7.65029 | -77.31916 | 35891 ft | 460 kts | 318° |
| 2026-04-26 23:32 | 7.69913 | -77.36097 | 35900 ft | 460 kts | 318° |
| 2026-04-26 23:32 | 7.74612 | -77.40410 | 35899 ft | 457 kts | 309° |
| 2026-04-26 23:33 | 7.78894 | -77.45163 | 35895 ft | 457 kts | 311° |
| 2026-04-26 23:33 | 7.83218 | -77.49839 | 35891 ft | 458 kts | 311° |
| 2026-04-26 23:34 | 7.87523 | -77.54584 | 35898 ft | 458 kts | 310° |
| 2026-04-26 23:34 | 7.91801 | -77.59360 | 35904 ft | 458 kts | 310° |
| 2026-04-26 23:35 | 7.96050 | -77.64117 | 35898 ft | 458 kts | 310° |
| 2026-04-26 23:35 | 8.00336 | -77.68901 | 35889 ft | 458 kts | 310° |
| 2026-04-26 23:36 | 8.04612 | -77.73650 | 35897 ft | 459 kts | 310° |
| 2026-04-26 23:36 | 8.08902 | -77.78430 | 35898 ft | 458 kts | 310° |
| 2026-04-26 23:37 | 8.13179 | -77.83211 | 35899 ft | 458 kts | 310° |
| 2026-04-26 23:37 | 8.17457 | -77.87993 | 35900 ft | 458 kts | 310° |
| 2026-04-26 23:38 | 8.21733 | -77.92766 | 35898 ft | 458 kts | 310° |
| 2026-04-26 23:38 | 8.26014 | -77.97539 | 35897 ft | 458 kts | 310° |
| 2026-04-26 23:39 | 8.30269 | -78.02287 | 35899 ft | 457 kts | 310° |
| 2026-04-26 23:39 | 8.34546 | -78.07059 | 35897 ft | 457 kts | 310° |
| 2026-04-26 23:40 | 8.38790 | -78.11808 | 35894 ft | 457 kts | 310° |
| 2026-04-26 23:40 | 8.43431 | -78.16215 | 35901 ft | 458 kts | 319° |
| 2026-04-26 23:41 | 8.48313 | -78.20307 | 35905 ft | 458 kts | 318° |
| 2026-04-26 23:41 | 8.53224 | -78.24433 | 35902 ft | 458 kts | 318° |
| 2026-04-26 23:42 | 8.58101 | -78.28531 | 35907 ft | 458 kts | 318° |
| 2026-04-26 23:42 | 8.65460 | -78.34710 | 35901 ft | 457 kts | 318° |
| 2026-04-26 23:43 | 8.70327 | -78.38797 | 35909 ft | 457 kts | 318° |
| 2026-04-26 23:43 | 8.75214 | -78.42912 | 35907 ft | 457 kts | 318° |
| 2026-04-26 23:44 | 8.80099 | -78.47028 | 35897 ft | 456 kts | 318° |
| 2026-04-26 23:44 | 8.84962 | -78.51122 | 35904 ft | 456 kts | 318° |
| 2026-04-26 23:45 | 8.89847 | -78.55232 | 35916 ft | 456 kts | 318° |
| 2026-04-26 23:45 | 8.94689 | -78.59314 | 35903 ft | 456 kts | 318° |
| 2026-04-26 23:46 | 8.99564 | -78.63416 | 35902 ft | 455 kts | 318° |
| 2026-04-26 23:46 | 9.04446 | -78.67527 | 35902 ft | 455 kts | 318° |
| 2026-04-26 23:47 | 9.09287 | -78.71602 | 35901 ft | 455 kts | 318° |
| 2026-04-26 23:47 | 9.14161 | -78.75715 | 35906 ft | 455 kts | 318° |
| 2026-04-26 23:48 | 9.18998 | -78.79800 | 35899 ft | 455 kts | 318° |
| 2026-04-26 23:48 | 9.23861 | -78.83908 | 35893 ft | 455 kts | 318° |
| 2026-04-26 23:49 | 9.28722 | -78.88014 | 35891 ft | 455 kts | 318° |
| 2026-04-26 23:49 | 9.33560 | -78.92098 | 35891 ft | 455 kts | 318° |
| 2026-04-26 23:50 | 9.38418 | -78.96204 | 35891 ft | 455 kts | 318° |
| 2026-04-26 23:50 | 9.43282 | -79.00308 | 35892 ft | 455 kts | 318° |
| 2026-04-26 23:51 | 9.48144 | -79.04415 | 35891 ft | 454 kts | 318° |
| 2026-04-26 23:51 | 9.53001 | -79.08529 | 35892 ft | 454 kts | 318° |
| 2026-04-26 23:52 | 9.57821 | -79.12619 | 35891 ft | 454 kts | 317° |
| 2026-04-26 23:52 | 9.62669 | -79.16729 | 35898 ft | 454 kts | 318° |
| 2026-04-26 23:53 | 9.67531 | -79.20841 | 35900 ft | 454 kts | 318° |
| 2026-04-26 23:53 | 9.72356 | -79.24923 | 35895 ft | 454 kts | 318° |
| 2026-04-26 23:54 | 9.77202 | -79.29032 | 35897 ft | 454 kts | 318° |
| 2026-04-26 23:54 | 9.82063 | -79.33148 | 35895 ft | 454 kts | 317° |
| 2026-04-26 23:55 | 9.86882 | -79.37231 | 35897 ft | 454 kts | 317° |
| 2026-04-26 23:55 | 9.91729 | -79.41346 | 35897 ft | 454 kts | 317° |
| 2026-04-26 23:56 | 9.96540 | -79.45434 | 35899 ft | 453 kts | 317° |
| 2026-04-26 23:56 | 10.01390 | -79.49550 | 35897 ft | 453 kts | 317° |
| 2026-04-26 23:57 | 10.06232 | -79.53658 | 35900 ft | 453 kts | 317° |
| 2026-04-26 23:57 | 10.11071 | -79.57765 | 35902 ft | 453 kts | 317° |
| 2026-04-26 23:58 | 10.15876 | -79.61856 | 35899 ft | 453 kts | 317° |
| 2026-04-26 23:58 | 10.19890 | -79.65276 | 35902 ft | 453 kts | 317° |
| 2026-04-26 23:59 | 10.24730 | -79.69386 | 35903 ft | 453 kts | 317° |
| 2026-04-26 23:59 | 10.29567 | -79.73492 | 35906 ft | 453 kts | 317° |
| 2026-04-27 00:00 | 10.34372 | -79.77585 | 35905 ft | 452 kts | 317° |
| 2026-04-27 00:00 | 10.39195 | -79.81703 | 35902 ft | 452 kts | 317° |
| 2026-04-27 00:01 | 10.44026 | -79.85828 | 35903 ft | 452 kts | 317° |
| 2026-04-27 00:01 | 10.48814 | -79.89914 | 35904 ft | 452 kts | 317° |
| 2026-04-27 00:02 | 10.53624 | -79.94034 | 35902 ft | 452 kts | 317° |
| 2026-04-27 00:02 | 10.58438 | -79.98148 | 35902 ft | 452 kts | 317° |
| 2026-04-27 00:03 | 10.63250 | -80.02258 | 35901 ft | 451 kts | 317° |
| 2026-04-27 00:03 | 10.68029 | -80.06350 | 35908 ft | 451 kts | 317° |
| 2026-04-27 00:04 | 10.72847 | -80.10472 | 35909 ft | 451 kts | 317° |
| 2026-04-27 00:04 | 10.77654 | -80.14574 | 35907 ft | 451 kts | 317° |
| 2026-04-27 00:05 | 10.82425 | -80.18657 | 35906 ft | 451 kts | 317° |
| 2026-04-27 00:05 | 10.87221 | -80.22768 | 35907 ft | 451 kts | 317° |
| 2026-04-27 00:06 | 10.92021 | -80.26887 | 35907 ft | 451 kts | 317° |
| 2026-04-27 00:06 | 10.96827 | -80.31010 | 35902 ft | 451 kts | 317° |
| 2026-04-27 00:07 | 11.01595 | -80.35092 | 35900 ft | 451 kts | 317° |
| 2026-04-27 00:07 | 11.06399 | -80.39216 | 35899 ft | 451 kts | 317° |
| 2026-04-27 00:08 | 11.11186 | -80.43342 | 35899 ft | 450 kts | 317° |
| 2026-04-27 00:08 | 11.15949 | -80.47433 | 35903 ft | 450 kts | 317° |
| 2026-04-27 00:09 | 11.20748 | -80.51550 | 35593 ft | 450 kts | 317° |
| 2026-04-27 00:09 | 11.23139 | -80.53605 | 35359 ft | 449 kts | 317° |
| 2026-04-27 00:09 | 11.25527 | -80.55661 | 35119 ft | 448 kts | 317° |
| 2026-04-27 00:10 | 11.27906 | -80.57706 | 34886 ft | 446 kts | 317° |
| 2026-04-27 00:10 | 11.30275 | -80.59745 | 34656 ft | 444 kts | 317° |
| 2026-04-27 00:10 | 11.32634 | -80.61772 | 34424 ft | 443 kts | 317° |
| 2026-04-27 00:10 | 11.34954 | -80.63769 | 34200 ft | 441 kts | 317° |
| 2026-04-27 00:11 | 11.37296 | -80.65787 | 33974 ft | 440 kts | 317° |
| 2026-04-27 00:11 | 11.39633 | -80.67801 | 33726 ft | 438 kts | 317° |
| 2026-04-27 00:11 | 11.41953 | -80.69801 | 33377 ft | 434 kts | 317° |
| 2026-04-27 00:11 | 11.44259 | -80.71790 | 32858 ft | 432 kts | 317° |
| 2026-04-27 00:12 | 11.46523 | -80.73743 | 32343 ft | 429 kts | 317° |
| 2026-04-27 00:12 | 11.48797 | -80.75703 | 31827 ft | 427 kts | 317° |
| 2026-04-27 00:12 | 11.51068 | -80.77660 | 31322 ft | 425 kts | 317° |
| 2026-04-27 00:12 | 11.53332 | -80.79609 | 30826 ft | 423 kts | 317° |
| 2026-04-27 00:13 | 11.55558 | -80.81523 | 30335 ft | 421 kts | 317° |
| 2026-04-27 00:13 | 11.57793 | -80.83450 | 29830 ft | 419 kts | 317° |
| 2026-04-27 00:13 | 11.60009 | -80.85365 | 29325 ft | 415 kts | 317° |
| 2026-04-27 00:13 | 11.62206 | -80.87264 | 28861 ft | 410 kts | 317° |
| 2026-04-27 00:14 | 11.64374 | -80.89138 | 28414 ft | 406 kts | 317° |
| 2026-04-27 00:14 | 11.66517 | -80.90988 | 27970 ft | 401 kts | 317° |
| 2026-04-27 00:14 | 11.68576 | -80.92857 | 27518 ft | 396 kts | 311° |
| 2026-04-27 00:14 | 11.70273 | -80.95037 | 27071 ft | 390 kts | 301° |
| 2026-04-27 00:15 | 11.71748 | -80.97342 | 26621 ft | 386 kts | 302° |
| 2026-04-27 00:15 | 11.73224 | -80.99626 | 26163 ft | 384 kts | 302° |
| 2026-04-27 00:15 | 11.74679 | -81.01862 | 25713 ft | 382 kts | 302° |
| 2026-04-27 00:15 | 11.76148 | -81.04109 | 25228 ft | 380 kts | 302° |
| 2026-04-27 00:16 | 11.77614 | -81.06352 | 24762 ft | 379 kts | 302° |
| 2026-04-27 00:16 | 11.79073 | -81.08593 | 24272 ft | 378 kts | 303° |
| 2026-04-27 00:16 | 11.80526 | -81.10832 | 23787 ft | 377 kts | 303° |
| 2026-04-27 00:16 | 11.81979 | -81.13071 | 23253 ft | 377 kts | 303° |
| 2026-04-27 00:17 | 11.83408 | -81.15274 | 22749 ft | 376 kts | 303° |
| 2026-04-27 00:17 | 11.84851 | -81.17497 | 22264 ft | 373 kts | 303° |
| 2026-04-27 00:17 | 11.86284 | -81.19705 | 21781 ft | 371 kts | 303° |
| 2026-04-27 00:17 | 11.87714 | -81.21906 | 21318 ft | 369 kts | 303° |
| 2026-04-27 00:18 | 11.89134 | -81.24087 | 20849 ft | 368 kts | 303° |
| 2026-04-27 00:18 | 11.90529 | -81.26232 | 20388 ft | 366 kts | 303° |
| 2026-04-27 00:18 | 11.91939 | -81.28406 | 19914 ft | 365 kts | 304° |
| 2026-04-27 00:18 | 11.93343 | -81.30573 | 19462 ft | 365 kts | 304° |
| 2026-04-27 00:19 | 11.94745 | -81.32736 | 18994 ft | 364 kts | 304° |
| 2026-04-27 00:19 | 11.96122 | -81.34858 | 18656 ft | 360 kts | 304° |
| 2026-04-27 00:19 | 11.97507 | -81.36992 | 18224 ft | 360 kts | 304° |
| 2026-04-27 00:19 | 11.98892 | -81.39128 | 17726 ft | 359 kts | 304° |
| 2026-04-27 00:20 | 12.00262 | -81.41243 | 17296 ft | 356 kts | 304° |
| 2026-04-27 00:20 | 12.01608 | -81.43322 | 16891 ft | 353 kts | 304° |
| 2026-04-27 00:20 | 12.02963 | -81.45418 | 16439 ft | 352 kts | 304° |
| 2026-04-27 00:20 | 12.04307 | -81.47500 | 16028 ft | 350 kts | 304° |
| 2026-04-27 00:21 | 12.05637 | -81.49567 | 15610 ft | 348 kts | 304° |
| 2026-04-27 00:21 | 12.06952 | -81.51607 | 15171 ft | 339 kts | 304° |
| 2026-04-27 00:21 | 12.08238 | -81.53597 | 14753 ft | 332 kts | 304° |
| 2026-04-27 00:21 | 12.09506 | -81.55527 | 14358 ft | 329 kts | 307° |
| 2026-04-27 00:22 | 12.11077 | -81.57215 | 13957 ft | 326 kts | 321° |
| 2026-04-27 00:22 | 12.12842 | -81.58660 | 13539 ft | 324 kts | 321° |
| 2026-04-27 00:22 | 12.14592 | -81.60095 | 13124 ft | 320 kts | 321° |
| 2026-04-27 00:22 | 12.16297 | -81.61495 | 12779 ft | 315 kts | 321° |
| 2026-04-27 00:23 | 12.17991 | -81.62886 | 12256 ft | 310 kts | 321° |
| 2026-04-27 00:23 | 12.19664 | -81.64263 | 11615 ft | 307 kts | 320° |
| 2026-04-27 00:23 | 12.21320 | -81.65629 | 10991 ft | 304 kts | 320° |
| 2026-04-27 00:23 | 12.22948 | -81.66973 | 10549 ft | 295 kts | 320° |
| 2026-04-27 00:24 | 12.24527 | -81.68275 | 10113 ft | 289 kts | 320° |
| 2026-04-27 00:24 | 12.26072 | -81.69548 | 9604 ft | 285 kts | 320° |
| 2026-04-27 00:24 | 12.27613 | -81.70815 | 8992 ft | 283 kts | 320° |
| 2026-04-27 00:24 | 12.29139 | -81.72073 | 8367 ft | 280 kts | 320° |
| 2026-04-27 00:25 | 12.30654 | -81.73324 | 7737 ft | 277 kts | 321° |
| 2026-04-27 00:25 | 12.32134 | -81.74546 | 7130 ft | 275 kts | 321° |
| 2026-04-27 00:25 | 12.33617 | -81.75769 | 6620 ft | 269 kts | 321° |
| 2026-04-27 00:25 | 12.35023 | -81.76928 | 6487 ft | 248 kts | 322° |
| 2026-04-27 00:26 | 12.36322 | -81.77998 | 6294 ft | 233 kts | 322° |
| 2026-04-27 00:26 | 12.37575 | -81.79030 | 5894 ft | 229 kts | 322° |
| 2026-04-27 00:26 | 12.38801 | -81.80038 | 5472 ft | 229 kts | 322° |
| 2026-04-27 00:26 | 12.40043 | -81.81059 | 5054 ft | 228 kts | 323° |
| 2026-04-27 00:27 | 12.41335 | -81.81988 | 4632 ft | 226 kts | 332° |
| 2026-04-27 00:27 | 12.42699 | -81.82795 | 4190 ft | 226 kts | 331° |
| 2026-04-27 00:27 | 12.44059 | -81.83604 | 3769 ft | 225 kts | 331° |
| 2026-04-27 00:27 | 12.45372 | -81.84388 | 3652 ft | 211 kts | 331° |
| 2026-04-27 00:28 | 12.46591 | -81.85115 | 3477 ft | 196 kts | 331° |
| 2026-04-27 00:28 | 12.47752 | -81.85805 | 3154 ft | 194 kts | 332° |
| 2026-04-27 00:28 | 12.49016 | -81.86139 | 3012 ft | 189 kts | 11° |
| 2026-04-27 00:28 | 12.50114 | -81.85476 | 3014 ft | 187 kts | 56° |
| 2026-04-27 00:29 | 12.50699 | -81.84279 | 3019 ft | 188 kts | 63° |
| 2026-04-27 00:29 | 12.51341 | -81.83124 | 3005 ft | 182 kts | 59° |
| 2026-04-27 00:29 | 12.51971 | -81.82074 | 3021 ft | 170 kts | 59° |
| 2026-04-27 00:29 | 12.52590 | -81.81078 | 2743 ft | 162 kts | 58° |
| 2026-04-27 00:30 | 12.53176 | -81.80141 | 2427 ft | 153 kts | 60° |
| 2026-04-27 00:30 | 12.53725 | -81.79227 | 2147 ft | 146 kts | 61° |
| 2026-04-27 00:30 | 12.54222 | -81.78358 | 1877 ft | 141 kts | 62° |
| 2026-04-27 00:30 | 12.54703 | -81.77483 | 1599 ft | 139 kts | 62° |
| 2026-04-27 00:31 | 12.55204 | -81.76629 | 1365 ft | 139 kts | 60° |
| 2026-04-27 00:31 | 12.55693 | -81.75789 | 1153 ft | 140 kts | 61° |
| 2026-04-27 00:31 | 12.56191 | -81.74937 | 870 ft | 140 kts | 63° |
| 2026-04-27 00:31 | 12.56681 | -81.74093 | 650 ft | 139 kts | 61° |
| 2026-04-27 00:32 | 12.57169 | -81.73250 | 394 ft | 136 kts | 61° |
| 2026-04-27 00:32 | 12.57635 | -81.72400 | 206 ft | 137 kts | 63° |
| 2026-04-27 00:32 | 12.58112 | -81.71565 | 30 ft | 128 kts | 62° |
| 2026-04-27 00:32 | 12.58421 | -81.70991 | 31 ft | 48 kts | 62° |
| 2026-04-27 00:33 | 12.58576 | -81.70734 | 27 ft | 41 kts | 58° |
| 2026-04-27 00:33 | 12.58718 | -81.70490 | 19 ft | 33 kts | 60° |
| 2026-04-27 00:33 | 12.58711 | -81.70377 | 16 ft | 11 kts | 114° |
| 2026-04-27 00:33 | 12.58714 | -81.70332 | 15 ft | 5 kts | 60° |
| 2026-04-27 00:34 | 12.58731 | -81.70301 | 15 ft | 5 kts | 60° |
| 2026-04-27 00:34 | 12.58745 | -81.70276 | 15 ft | 4 kts | 60° |
| 2026-04-27 00:34 | 12.58742 | -81.70263 | 15 ft | 1 kts | 124° |
| 2026-04-27 00:34 | 12.58726 | -81.70252 | 16 ft | 6 kts | 148° |
| 2026-04-27 00:35 | 12.58708 | -81.70241 | 15 ft | 2 kts | 150° |
| 2026-04-27 00:35 | 12.58698 | -81.70236 | 15 ft | 1 kts | 150° |
| 2026-04-27 00:35 | 12.58694 | -81.70233 | 16 ft | 0 kts | 150° |
| 2026-04-27 00:35 | 12.58692 | -81.70232 | 18 ft | 0 kts | 150° |
| 2026-04-27 00:47 | 12.58691 | -81.70232 | 15 ft | 0 kts | 150° |
| 2026-04-27 00:47 | 12.58692 | -81.70232 | 15 ft | 0 kts | 150° |